Time;durP1;ratioP1;P1;durP2;ratioP2;P2;SDS_P1;SDS_P2;PMS_P1;PMS_P2;Temp;Humidity;BMP_temperature;BMP_pressure;BME280_temperature;BME280_humidity;BME280_pressure;Samples;Min_cycle;Max_cycle;Signal;HPM_P1;HPM_P2
2021/10/19 00:01:51;;;;;;;19.80;14.83;;;;;;;14.22;48.40;102457.77;1737443;82;21058;-49
2021/10/19 00:04:18;;;;;;;17.02;13.78;;;;;;;14.23;48.60;102458.21;1735903;82;21015;-49
2021/10/19 00:06:44;;;;;;;17.32;14.07;;;;;;;14.27;48.71;102462.97;1737527;82;21007;-52
2021/10/19 00:09:11;;;;;;;18.75;13.62;;;;;;;14.27;48.53;102450.75;1733447;82;21046;-47
2021/10/19 00:11:38;;;;;;;18.35;12.35;;;;;;;14.30;48.32;102446.80;1741200;82;20967;-49
2021/10/19 00:14:05;;;;;;;17.27;13.25;;;;;;;14.34;48.02;102447.20;1733776;82;21320;-50
2021/10/19 00:16:32;;;;;;;21.97;13.55;;;;;;;14.37;47.62;102447.18;1719334;82;21043;-50
2021/10/19 00:18:59;;;;;;;16.90;12.70;;;;;;;14.40;47.24;102444.55;1729333;82;21054;-50
2021/10/19 00:21:27;;;;;;;17.05;13.08;;;;;;;14.41;47.03;102446.27;1730361;82;21023;-49
2021/10/19 00:23:53;;;;;;;17.62;12.55;;;;;;;14.44;46.69;102446.25;1729850;82;21499;-49
2021/10/19 00:26:20;;;;;;;18.95;13.78;;;;;;;14.45;46.59;102440.11;1727271;82;21090;-50
2021/10/19 00:28:47;;;;;;;19.42;14.30;;;;;;;14.46;46.49;102449.72;1733061;82;21518;-50
2021/10/19 00:31:13;;;;;;;15.88;12.70;;;;;;;14.46;46.38;102447.09;1730440;82;21042;-49
2021/10/19 00:33:40;;;;;;;17.95;13.32;;;;;;;14.45;46.36;102453.20;1730524;82;21522;-49
2021/10/19 00:36:07;;;;;;;18.42;12.80;;;;;;;14.46;46.36;102457.58;1729043;82;21070;-48
2021/10/19 00:38:35;;;;;;;15.85;12.70;;;;;;;14.44;46.41;102451.48;1715648;82;22441;-50
2021/10/19 00:41:02;;;;;;;16.17;12.95;;;;;;;14.43;46.51;102454.97;1728993;82;21102;-50
2021/10/19 00:43:28;;;;;;;22.07;12.82;;;;;;;14.43;46.45;102465.45;1729661;82;21055;-50
2021/10/19 00:45:55;;;;;;;17.15;12.80;;;;;;;14.41;46.48;102461.98;1716560;82;21078;-48
2021/10/19 00:48:26;;;;;;;15.35;12.00;;;;;;;14.42;46.64;102461.55;1727838;82;21526;-50
2021/10/19 00:50:51;;;;;;;14.38;11.88;;;;;;;14.41;46.66;102455.43;1729183;82;21059;-50
2021/10/19 00:53:17;;;;;;;16.62;11.78;;;;;;;14.42;46.54;102455.88;1729169;82;21019;-50
2021/10/19 00:55:44;;;;;;;14.85;11.00;;;;;;;14.44;46.33;102450.17;1703461;82;21058;-50
2021/10/19 00:58:11;;;;;;;18.55;12.07;;;;;;;14.46;46.23;102451.03;1734142;82;21504;-50
2021/10/19 01:00:38;;;;;;;15.18;11.38;;;;;;;14.49;46.05;102454.91;1727450;82;21015;-49
2021/10/19 01:03:05;;;;;;;13.50;10.55;;;;;;;14.51;46.04;102457.06;1727493;82;21074;-51
2021/10/19 01:05:31;;;;;;;12.55;10.70;;;;;;;14.52;45.93;102450.95;1727287;82;21495;-48
2021/10/19 01:07:58;;;;;;;15.18;10.80;;;;;;;14.54;45.83;102451.80;1727678;82;20999;-48
2021/10/19 01:10:26;;;;;;;15.45;10.55;;;;;;;14.55;45.69;102457.89;1727905;82;21062;-50
2021/10/19 01:12:55;;;;;;;15.55;11.20;;;;;;;14.55;45.72;102457.45;1723893;82;21011;-50
2021/10/19 01:15:21;;;;;;;15.90;11.05;;;;;;;14.55;45.83;102456.58;1673436;85;21046;-50
2021/10/19 01:17:50;;;;;;;18.32;12.70;;;;;;;14.55;45.83;102450.91;1706860;83;21034;-50
2021/10/19 01:20:25;;;;;;;13.93;10.38;;;;;;;14.54;45.86;102454.86;1706514;83;21050;-48
2021/10/19 01:22:55;;;;;;;12.88;10.53;;;;;;;14.53;45.80;102455.30;1706532;83;21038;-51
2021/10/19 01:25:24;;;;;;;13.72;10.72;;;;;;;14.52;45.85;102464.48;1704377;83;20998;-50
2021/10/19 01:28:07;;;;;;;13.00;11.08;;;;;;;14.51;45.95;102467.54;1703769;83;20971;-50
2021/10/19 01:30:44;;;;;;;14.05;11.35;;;;;;;14.49;45.93;102460.14;1703752;83;21443;-50
2021/10/19 01:33:11;;;;;;;15.98;11.65;;;;;;;14.48;46.13;102471.52;1703705;83;21015;-50
2021/10/19 01:35:41;;;;;;;15.53;11.83;;;;;;;14.47;46.16;102467.15;1694296;83;21052;-50
2021/10/19 01:38:11;;;;;;;14.70;11.28;;;;;;;14.45;46.29;102468.92;1706870;83;21046;-51
2021/10/19 01:40:38;;;;;;;14.90;11.97;;;;;;;14.46;46.46;102468.48;1705855;83;21538;-51
2021/10/19 01:43:18;;;;;;;13.83;11.08;;;;;;;14.47;46.67;102467.15;1703931;83;21050;-51
2021/10/19 01:45:50;;;;;;;14.47;11.85;;;;;;;14.50;46.71;102471.06;1692374;83;21580;-51
2021/10/19 01:48:16;;;;;;;13.40;10.72;;;;;;;14.52;46.68;102461.44;1703810;83;21535;-50
2021/10/19 01:50:43;;;;;;;16.07;11.30;;;;;;;14.55;46.66;102467.93;1706585;83;21023;-52
2021/10/19 01:53:10;;;;;;;15.78;11.85;;;;;;;14.57;46.67;102476.64;1706186;83;21081;-50
2021/10/19 01:55:38;;;;;;;15.53;11.75;;;;;;;14.59;46.67;102484.04;1703689;83;21018;-51
2021/10/19 01:58:06;;;;;;;15.23;12.28;;;;;;;14.59;46.66;102477.48;1703754;83;21002;-51
2021/10/19 02:00:33;;;;;;;18.90;12.70;;;;;;;14.60;46.71;102488.84;1699116;83;21563;-51
2021/10/19 02:03:01;;;;;;;17.42;11.60;;;;;;;14.60;46.57;102483.61;1706504;83;21073;-50
2021/10/19 02:05:28;;;;;;;16.67;12.03;;;;;;;14.60;46.66;102479.67;1707001;83;21504;-50
2021/10/19 02:07:55;;;;;;;14.38;11.78;;;;;;;14.58;46.74;102475.77;1704455;83;21125;-51
2021/10/19 02:10:22;;;;;;;15.05;10.53;;;;;;;14.58;46.82;102473.16;1705230;83;21055;-51
2021/10/19 02:12:48;;;;;;;14.95;10.72;;;;;;;14.57;46.83;102471.41;1705924;83;21055;-51
2021/10/19 02:15:15;;;;;;;15.03;10.70;;;;;;;14.56;47.17;102473.61;1728456;82;21464;-51
2021/10/19 02:17:44;;;;;;;12.40;11.03;;;;;;;14.57;47.13;102464.85;1741927;82;21011;-51
2021/10/19 02:20:11;;;;;;;18.92;10.60;;;;;;;14.58;47.26;102466.61;1736492;82;21014;-50
2021/10/19 02:22:38;;;;;;;13.45;10.65;;;;;;;14.59;47.35;102466.14;1735324;82;21535;-51
2021/10/19 02:25:06;;;;;;;14.80;10.20;;;;;;;14.62;47.23;102466.12;1735346;82;21042;-50
2021/10/19 02:27:33;;;;;;;15.45;11.40;;;;;;;14.62;47.13;102470.92;1734762;82;21486;-50
2021/10/19 02:29:59;;;;;;;12.82;10.18;;;;;;;14.65;47.23;102478.73;1735677;82;21019;-50
2021/10/19 02:32:26;;;;;;;14.60;11.25;;;;;;;14.65;47.23;102477.42;1738113;82;21046;-50
2021/10/19 02:34:53;;;;;;;14.43;10.45;;;;;;;14.67;47.31;102488.75;1741978;82;21034;-51
2021/10/19 02:37:19;;;;;;;14.07;10.70;;;;;;;14.67;47.23;102489.22;1735750;81;20990;-51
2021/10/19 02:39:46;;;;;;;14.60;11.45;;;;;;;14.67;47.28;102495.30;1738239;82;21483;-50
2021/10/19 02:42:12;;;;;;;16.52;12.03;;;;;;;14.65;47.37;102503.63;1738714;82;20970;-50
2021/10/19 02:44:40;;;;;;;16.40;12.90;;;;;;;14.64;47.50;102492.73;1734363;82;21585;-50
2021/10/19 02:47:06;;;;;;;14.18;11.22;;;;;;;14.63;47.54;102501.93;1727548;82;21093;-50
2021/10/19 02:49:33;;;;;;;16.23;11.57;;;;;;;14.61;47.48;102505.84;1736720;82;21506;-50
2021/10/19 02:51:59;;;;;;;17.12;11.43;;;;;;;14.62;47.34;102501.05;1738341;82;21030;-51
2021/10/19 02:54:26;;;;;;;18.02;12.03;;;;;;;14.62;47.13;102514.16;1738295;82;21035;-50
2021/10/19 02:56:53;;;;;;;16.17;11.35;;;;;;;14.62;47.01;102513.27;1735927;82;20983;-51
2021/10/19 02:59:20;;;;;;;12.80;10.93;;;;;;;14.62;46.91;102519.39;1737636;82;21554;-50
2021/10/19 03:01:46;;;;;;;15.68;11.00;;;;;;;14.64;46.78;102522.86;1737655;82;20999;-50
2021/10/19 03:04:13;;;;;;;16.48;11.00;;;;;;;14.65;46.75;102519.81;1734458;82;21479;-50
2021/10/19 03:06:40;;;;;;;16.42;10.72;;;;;;;14.65;46.62;102525.89;1735562;82;21050;-52
2021/10/19 03:09:06;;;;;;;15.28;11.60;;;;;;;14.65;46.56;102528.52;1735047;82;21093;-50
2021/10/19 03:11:34;;;;;;;17.90;11.25;;;;;;;14.63;46.53;102534.20;1736018;82;21507;-51
2021/10/19 03:14:01;;;;;;;19.55;13.20;;;;;;;14.61;46.51;102539.91;1737037;82;20986;-51
2021/10/19 03:16:29;;;;;;;19.00;12.80;;;;;;;14.58;46.59;102533.41;1738324;82;21022;-50
2021/10/19 03:18:55;;;;;;;21.55;13.30;;;;;;;14.56;46.68;102534.30;1738002;82;21054;-50
2021/10/19 03:21:22;;;;;;;16.50;11.68;;;;;;;14.55;46.82;102539.97;1735315;82;21007;-51
2021/10/19 03:23:48;;;;;;;13.83;10.98;;;;;;;14.52;46.85;102538.70;1737334;82;21054;-51
2021/10/19 03:26:16;;;;;;;16.67;11.83;;;;;;;14.50;47.01;102540.48;1739268;82;21002;-50
2021/10/19 03:28:47;;;;;;;19.87;12.07;;;;;;;14.48;47.09;102546.17;1738493;82;21542;-50
2021/10/19 03:31:14;;;;;;;19.05;12.58;;;;;;;14.48;47.19;102539.63;1738123;82;21523;-51
2021/10/19 03:33:41;;;;;;;15.50;11.70;;;;;;;14.51;47.15;102549.17;1735992;82;21502;-51
2021/10/19 03:36:09;;;;;;;14.65;11.48;;;;;;;14.51;47.13;102543.50;1735591;82;21034;-50
2021/10/19 03:38:38;;;;;;;16.67;11.38;;;;;;;14.54;47.08;102547.42;1734769;82;21474;-50
2021/10/19 03:41:06;;;;;;;14.68;11.30;;;;;;;14.55;47.01;102542.59;1735648;82;21019;-51
2021/10/19 03:43:33;;;;;;;14.63;11.97;;;;;;;14.55;47.08;102546.52;1734870;82;21510;-51
2021/10/19 03:45:59;;;;;;;16.42;11.78;;;;;;;14.57;47.04;102546.50;1733802;82;21046;-50
2021/10/19 03:48:26;;;;;;;18.82;11.93;;;;;;;14.56;46.98;102545.66;1737934;82;21010;-50
2021/10/19 03:50:52;;;;;;;15.70;11.95;;;;;;;14.56;46.97;102552.64;1738194;82;21062;-50
2021/10/19 03:53:19;;;;;;;16.55;12.05;;;;;;;14.54;47.11;102553.97;1737851;82;21507;-49
2021/10/19 03:55:48;;;;;;;19.35;11.68;;;;;;;14.53;47.20;102550.91;1735684;82;21023;-50
2021/10/19 03:58:14;;;;;;;15.38;12.30;;;;;;;14.52;47.34;102553.12;1735174;82;21054;-50
2021/10/19 04:00:41;;;;;;;18.82;12.18;;;;;;;14.49;47.46;102560.98;1730294;82;21049;-50
2021/10/19 04:03:09;;;;;;;19.20;11.53;;;;;;;14.49;47.70;102561.42;1736761;82;21066;-50
2021/10/19 04:05:35;;;;;;;19.20;11.83;;;;;;;14.46;47.85;102559.72;1736714;82;21022;-48
2021/10/19 04:08:03;;;;;;;16.12;12.00;;;;;;;14.48;47.88;102561.01;1737693;82;21014;-48
2021/10/19 04:10:30;;;;;;;14.90;11.88;;;;;;;14.49;48.00;102563.61;1738602;82;21011;-50
2021/10/19 04:12:57;;;;;;;20.05;12.03;;;;;;;14.49;47.93;102559.68;1738617;82;21018;-50
2021/10/19 04:15:24;;;;;;;17.10;11.90;;;;;;;14.49;47.85;102557.06;1721085;83;21533;-50
2021/10/19 04:17:50;;;;;;;16.10;12.13;;;;;;;14.49;47.97;102558.37;1738357;82;21042;-50
2021/10/19 04:20:17;;;;;;;14.90;11.50;;;;;;;14.49;48.02;102557.06;1738180;82;21145;-51
2021/10/19 04:22:43;;;;;;;16.02;12.00;;;;;;;14.49;48.08;102563.61;1736553;82;21030;-51
2021/10/19 04:25:11;;;;;;;16.80;12.28;;;;;;;14.47;48.05;102560.13;1735322;82;21018;-50
2021/10/19 04:27:38;;;;;;;15.23;11.03;;;;;;;14.44;48.08;102561.48;1735314;82;21015;-50
2021/10/19 04:30:06;;;;;;;13.78;11.22;;;;;;;14.44;48.18;102562.80;1735443;82;20963;-50
2021/10/19 04:32:34;;;;;;;15.85;12.05;;;;;;;14.42;48.24;102563.25;1735299;82;21027;-50
2021/10/19 04:35:01;;;;;;;22.85;14.23;;;;;;;14.41;48.16;102565.43;1737086;82;21537;-50
2021/10/19 04:37:28;;;;;;;18.60;12.80;;;;;;;14.42;48.18;102570.23;1738522;82;21038;-52
2021/10/19 04:39:54;;;;;;;21.15;12.60;;;;;;;14.41;48.27;102569.36;1738070;82;20986;-50
2021/10/19 04:42:21;;;;;;;15.50;11.68;;;;;;;14.41;48.18;102569.36;1735372;82;21033;-51
2021/10/19 04:44:48;;;;;;;15.70;11.75;;;;;;;14.42;48.07;102572.42;1740935;82;21019;-50
2021/10/19 04:47:16;;;;;;;16.93;11.57;;;;;;;14.44;48.11;102576.33;1728594;82;21007;-50
2021/10/19 04:49:42;;;;;;;15.15;11.75;;;;;;;14.42;48.14;102573.73;1735736;82;21519;-50
2021/10/19 04:52:09;;;;;;;16.40;12.55;;;;;;;14.41;48.18;102577.22;1736744;82;21062;-51
2021/10/19 04:54:36;;;;;;;16.17;12.65;;;;;;;14.40;48.19;102580.73;1738599;82;20999;-50
2021/10/19 04:57:02;;;;;;;15.53;11.90;;;;;;;14.39;48.29;102582.03;1734239;82;21074;-50
2021/10/19 04:59:30;;;;;;;20.57;12.73;;;;;;;14.37;48.31;102585.98;1731851;82;20987;-50
2021/10/19 05:01:57;;;;;;;19.85;12.33;;;;;;;14.36;48.37;102588.16;1735468;82;21070;-49
2021/10/19 05:04:23;;;;;;;13.85;12.05;;;;;;;14.36;48.35;102593.86;1735189;82;21463;-50
2021/10/19 05:06:49;;;;;;;16.42;11.97;;;;;;;14.36;48.38;102590.77;1737570;81;21066;-51
2021/10/19 05:09:18;;;;;;;16.67;11.48;;;;;;;14.38;48.43;102592.98;1738589;82;21518;-50
2021/10/19 05:11:45;;;;;;;16.87;12.23;;;;;;;14.40;48.58;102601.69;1737853;82;20999;-50
2021/10/19 05:14:12;;;;;;;16.95;11.60;;;;;;;14.41;48.67;102600.79;1736089;82;21546;-49
2021/10/19 05:16:40;;;;;;;17.00;12.20;;;;;;;14.43;48.63;102604.27;1730427;82;21527;-50
2021/10/19 05:19:06;;;;;;;23.02;17.57;;;;;;;14.43;48.68;102606.88;1729459;82;21074;-48
2021/10/19 05:21:33;;;;;;;17.60;14.93;;;;;;;14.42;48.73;102614.33;1730719;82;21010;-50
2021/10/19 05:23:59;;;;;;;19.82;13.22;;;;;;;14.42;48.78;102614.33;1730149;82;21055;-51
2021/10/19 05:26:26;;;;;;;15.95;12.55;;;;;;;14.42;48.88;102626.11;1727269;82;21551;-50
2021/10/19 05:28:52;;;;;;;20.37;12.23;;;;;;;14.41;48.84;102628.29;1727376;82;20980;-51
2021/10/19 05:31:19;;;;;;;18.52;12.13;;;;;;;14.40;48.71;102630.50;1727900;82;21018;-50
2021/10/19 05:33:46;;;;;;;18.00;12.53;;;;;;;14.40;48.69;102633.12;1727057;82;21507;-49
2021/10/19 05:36:13;;;;;;;20.72;12.53;;;;;;;14.39;48.78;102633.98;1728817;82;20999;-51
2021/10/19 05:38:39;;;;;;;19.73;13.55;;;;;;;14.41;48.96;102634.84;1728327;82;20967;-52
2021/10/19 05:41:06;;;;;;;27.58;13.60;;;;;;;14.44;49.00;102650.98;1729167;82;21054;-51
2021/10/19 05:43:32;;;;;;;17.73;12.95;;;;;;;14.46;48.86;102643.55;1729639;82;21051;-50
2021/10/19 05:45:59;;;;;;;21.57;13.60;;;;;;;14.48;48.84;102644.40;1717682;82;21014;-51
2021/10/19 05:48:25;;;;;;;16.80;13.22;;;;;;;14.51;48.81;102654.83;1728051;82;21105;-51
2021/10/19 05:50:52;;;;;;;17.05;12.85;;;;;;;14.52;48.89;102657.90;1728887;82;21534;-52
2021/10/19 05:53:19;;;;;;;15.60;12.45;;;;;;;14.57;49.04;102660.02;1729719;82;20991;-53
2021/10/19 05:55:45;;;;;;;17.85;12.10;;;;;;;14.67;48.96;102666.92;1730672;82;20967;-50
2021/10/19 05:58:12;;;;;;;18.07;12.55;;;;;;;14.78;48.71;102668.58;1729970;82;21014;-51
2021/10/19 06:00:39;;;;;;;23.12;12.10;;;;;;;14.86;48.53;102659.77;1727986;82;21023;-49
2021/10/19 06:03:05;;;;;;;18.48;12.90;;;;;;;14.95;48.44;102669.30;1727193;82;21058;-51
2021/10/19 06:05:34;;;;;;;16.35;12.23;;;;;;;15.02;48.20;102671.00;1727395;82;21496;-50
2021/10/19 06:08:01;;;;;;;19.57;13.70;;;;;;;15.10;48.12;102669.16;1727635;82;21011;-51
2021/10/19 06:10:30;;;;;;;17.85;12.90;;;;;;;15.15;48.07;102676.09;1727519;82;21471;-51
2021/10/19 06:12:57;;;;;;;18.20;12.82;;;;;;;15.21;47.80;102675.15;1729789;82;21054;-51
2021/10/19 06:15:25;;;;;;;19.25;13.50;;;;;;;15.24;47.97;102675.13;1728056;82;21538;-51
2021/10/19 06:17:53;;;;;;;15.53;12.40;;;;;;;15.27;47.98;102674.65;1738243;82;21523;-53
2021/10/19 06:20:20;;;;;;;18.20;13.13;;;;;;;15.32;47.87;102677.23;1738552;82;21586;-50
2021/10/19 06:22:47;;;;;;;17.62;12.58;;;;;;;15.36;47.79;102680.23;1735422;82;21515;-51
2021/10/19 06:25:15;;;;;;;18.48;13.45;;;;;;;15.41;48.16;102686.32;1728210;82;21070;-50
2021/10/19 06:27:42;;;;;;;16.67;12.37;;;;;;;15.43;48.21;102689.36;1738416;82;21027;-51
2021/10/19 06:30:10;;;;;;;19.32;14.20;;;;;;;15.45;48.13;102688.06;1738392;82;21090;-51
2021/10/19 06:32:40;;;;;;;16.85;12.98;;;;;;;15.41;48.06;102687.16;1742594;82;21577;-51
2021/10/19 06:35:10;;;;;;;16.15;13.80;;;;;;;15.39;48.24;102690.72;1736288;82;21086;-50
2021/10/19 06:37:38;;;;;;;18.25;12.95;;;;;;;15.32;48.48;102692.97;1737687;82;21062;-51
2021/10/19 06:40:06;;;;;;;18.45;14.78;;;;;;;15.26;48.73;102692.59;1740184;82;21010;-50
2021/10/19 06:42:34;;;;;;;16.75;13.35;;;;;;;15.23;48.82;102696.98;1738278;82;21486;-51
2021/10/19 06:45:01;;;;;;;19.92;14.10;;;;;;;15.19;49.11;102693.97;1742426;82;21041;-51
2021/10/19 06:47:29;;;;;;;20.48;15.15;;;;;;;15.17;49.28;102697.05;1733650;82;21480;-50
2021/10/19 06:49:57;;;;;;;21.30;14.47;;;;;;;15.15;49.27;102697.06;1735591;82;21039;-51
2021/10/19 06:52:24;;;;;;;22.85;14.68;;;;;;;15.15;49.56;102691.83;1736310;82;21045;-51
2021/10/19 06:54:51;;;;;;;24.43;15.72;;;;;;;15.16;49.47;102688.77;1737534;82;21018;-51
2021/10/19 06:57:18;;;;;;;19.32;13.35;;;;;;;15.16;49.64;102692.27;1729347;82;21042;-51
2021/10/19 06:59:46;;;;;;;19.20;13.83;;;;;;;15.20;49.57;102689.16;1737025;82;21054;-50
2021/10/19 07:02:13;;;;;;;20.12;13.32;;;;;;;15.20;49.60;102690.04;1739071;82;21077;-51
2021/10/19 07:04:40;;;;;;;17.57;13.32;;;;;;;15.23;49.65;102696.98;1728086;82;21007;-51
2021/10/19 07:07:07;;;;;;;15.98;13.68;;;;;;;15.26;49.80;102694.34;1740173;82;21062;-51
2021/10/19 07:09:35;;;;;;;19.55;13.40;;;;;;;15.27;49.94;102694.78;1728496;82;21031;-50
2021/10/19 07:12:03;;;;;;;17.27;13.85;;;;;;;15.31;50.32;102701.73;1731181;82;21042;-52
2021/10/19 07:14:30;;;;;;;20.30;14.98;;;;;;;15.32;50.19;102699.52;1738750;82;21062;-50
2021/10/19 07:16:58;;;;;;;23.30;14.65;;;;;;;15.35;50.17;102696.88;1731436;82;21487;-51
2021/10/19 07:19:25;;;;;;;18.65;14.13;;;;;;;15.36;50.07;102701.23;1728715;82;21144;-52
2021/10/19 07:21:51;;;;;;;23.02;15.28;;;;;;;15.37;50.11;102696.42;1743731;82;21002;-50
2021/10/19 07:24:18;;;;;;;21.75;14.85;;;;;;;15.38;50.00;102701.64;1736144;82;20987;-51
2021/10/19 07:26:45;;;;;;;25.08;16.02;;;;;;;15.40;50.00;102704.23;1728910;82;21023;-50
2021/10/19 07:29:12;;;;;;;21.37;15.28;;;;;;;15.42;50.17;102703.78;1737856;82;21073;-50
2021/10/19 07:31:38;;;;;;;27.05;15.95;;;;;;;15.45;50.18;102702.05;1734089;82;21026;-52
2021/10/19 07:34:05;;;;;;;22.22;15.65;;;;;;;15.48;49.87;102706.37;1735372;82;21550;-51
2021/10/19 07:36:35;;;;;;;25.20;16.02;;;;;;;15.49;49.84;102701.56;1734151;82;21009;-52
2021/10/19 07:39:03;;;;;;;23.83;14.33;;;;;;;15.51;50.11;102703.73;1732392;82;21023;-51
2021/10/19 07:41:31;;;;;;;19.20;15.00;;;;;;;15.55;50.21;102705.43;1735267;82;21061;-50
2021/10/19 07:43:58;;;;;;;24.40;15.93;;;;;;;15.57;50.04;102707.59;1736894;82;21065;-51
2021/10/19 07:46:24;;;;;;;18.37;15.75;;;;;;;15.58;50.22;102702.75;1726146;81;21525;-53
2021/10/19 07:48:51;;;;;;;20.17;15.60;;;;;;;15.61;50.07;102707.98;1733769;82;21078;-51
2021/10/19 07:51:18;;;;;;;23.92;16.00;;;;;;;15.62;50.18;102704.45;1740808;82;21074;-51
2021/10/19 07:53:46;;;;;;;20.15;15.13;;;;;;;15.65;50.29;102710.99;1736098;82;21039;-51
2021/10/19 07:56:13;;;;;;;19.67;14.47;;;;;;;15.68;50.46;102709.66;1735484;82;21539;-52
2021/10/19 07:58:40;;;;;;;21.75;15.00;;;;;;;15.70;50.63;102712.26;1737328;82;21030;-51
2021/10/19 08:01:07;;;;;;;20.43;15.32;;;;;;;15.73;50.72;102718.33;1740159;82;21058;-50
2021/10/19 08:03:34;;;;;;;19.55;15.20;;;;;;;15.75;50.67;102715.67;1732133;82;21530;-52
2021/10/19 08:06:01;;;;;;;20.37;15.38;;;;;;;15.77;50.87;102712.59;1738937;82;21054;-50
2021/10/19 08:08:28;;;;;;;21.10;16.12;;;;;;;15.78;50.77;102709.97;1732911;82;21027;-51
2021/10/19 08:10:55;;;;;;;19.45;15.53;;;;;;;15.79;50.98;102707.75;1736151;82;21026;-50
2021/10/19 08:13:22;;;;;;;22.50;15.05;;;;;;;15.81;51.23;102702.04;1734771;82;21475;-53
2021/10/19 08:15:49;;;;;;;23.40;15.95;;;;;;;15.83;51.45;102704.20;1747208;82;21011;-51
2021/10/19 08:18:17;;;;;;;24.15;15.85;;;;;;;15.86;51.48;102714.67;1731848;82;21031;-51
2021/10/19 08:20:44;;;;;;;22.95;16.10;;;;;;;15.90;51.44;102713.75;1725909;82;21059;-51
2021/10/19 08:23:12;;;;;;;22.37;16.40;;;;;;;15.93;51.25;102703.19;1726638;82;21018;-51
2021/10/19 08:25:40;;;;;;;21.27;14.83;;;;;;;15.98;51.38;102708.39;1727620;82;21079;-51
2021/10/19 08:28:07;;;;;;;19.98;15.10;;;;;;;16.02;51.07;102710.09;1727940;82;21471;-54
2021/10/19 08:30:34;;;;;;;20.15;15.10;;;;;;;16.07;50.63;102708.28;1726196;82;21503;-53
2021/10/19 08:33:02;;;;;;;17.07;14.55;;;;;;;16.11;50.46;102711.28;1728161;82;21030;-53
2021/10/19 08:35:28;;;;;;;18.75;15.08;;;;;;;16.12;50.35;102709.06;1719108;82;21493;-51
2021/10/19 08:37:55;;;;;;;18.48;15.72;;;;;;;16.13;50.69;102703.81;1731564;82;21011;-51
2021/10/19 08:40:22;;;;;;;22.17;16.23;;;;;;;16.12;50.42;102709.95;1728359;82;20995;-54
2021/10/19 08:42:52;;;;;;;25.10;15.80;;;;;;;16.12;50.51;102712.57;1734185;82;21062;-52
2021/10/19 08:45:19;;;;;;;20.60;16.40;;;;;;;16.14;50.57;102718.67;1727693;82;21019;-52
2021/10/19 08:47:47;;;;;;;20.08;16.15;;;;;;;16.18;50.66;102716.42;1728059;82;21074;-50
2021/10/19 08:50:15;;;;;;;22.45;15.70;;;;;;;16.23;50.51;102712.42;1724033;82;21516;-52
2021/10/19 08:52:42;;;;;;;20.45;15.30;;;;;;;16.27;50.35;102720.25;1728976;82;21086;-53
2021/10/19 08:55:09;;;;;;;21.42;16.12;;;;;;;16.32;50.22;102716.69;1659162;85;21048;-52
2021/10/19 08:57:38;;;;;;;18.35;15.23;;;;;;;16.34;50.22;102714.91;1673272;85;21618;-52
2021/10/19 09:00:09;;;;;;;19.12;15.05;;;;;;;16.37;50.09;102714.41;1729932;82;21020;-52
2021/10/19 09:02:39;;;;;;;21.30;16.65;;;;;;;16.37;49.71;102714.84;1728780;82;21004;-51
2021/10/19 09:05:24;;;;;;;20.57;15.80;;;;;;;16.36;49.76;102710.50;1659516;85;20990;-54
2021/10/19 09:08:02;;;;;;;19.73;16.42;;;;;;;16.36;49.79;102710.50;1657215;85;21054;-53
2021/10/19 09:10:36;;;;;;;21.85;15.53;;;;;;;16.36;49.59;102710.50;1624074;87;21030;-53
2021/10/19 09:13:05;;;;;;;22.58;16.67;;;;;;;16.35;49.69;102700.86;1635532;87;21085;-53
2021/10/19 09:15:35;;;;;;;20.75;15.78;;;;;;;16.35;50.09;102704.80;1627702;87;21001;-50
2021/10/19 09:18:09;;;;;;;21.60;15.60;;;;;;;16.39;50.10;102711.75;1503579;94;22584;-55
2021/10/19 09:20:40;;;;;;;17.75;15.32;;;;;;;16.40;49.89;102706.93;1493999;94;21179;-52
2021/10/19 09:23:07;;;;;;;22.13;15.65;;;;;;;16.40;49.82;102705.18;1493158;94;21104;-51
2021/10/19 09:25:40;;;;;;;22.35;15.65;;;;;;;16.43;49.56;102705.55;1492702;96;21100;-56
2021/10/19 09:28:10;;;;;;;20.68;16.00;;;;;;;16.45;49.25;102705.96;1494824;96;21073;-52
2021/10/19 09:30:44;;;;;;;;;;;;;;;16.46;49.36;102708.15;1435297;99;21117;-52
2021/10/19 09:33:17;;;;;;;16.60;14.60;;;;;;;16.49;49.22;102704.14;1399020;101;20427;-53
2021/10/19 09:35:50;;;;;;;17.50;15.32;;;;;;;16.51;49.12;102703.70;1390842;102;21186;-52
2021/10/19 09:38:17;;;;;;;18.45;15.83;;;;;;;16.55;49.16;102704.11;1387473;102;21115;-53
2021/10/19 09:40:52;;;;;;;20.52;16.35;;;;;;;16.58;49.03;102697.04;1384820;103;21241;-52
2021/10/19 09:43:22;;;;;;;20.30;15.72;;;;;;;16.61;48.92;102686.94;1384099;103;21168;-52
2021/10/19 09:45:53;;;;;;;18.20;15.15;;;;;;;16.64;49.05;102698.69;1354278;105;21713;-50
2021/10/19 09:48:27;;;;;;;18.73;14.98;;;;;;;16.64;49.14;102695.63;1354501;106;21180;-52
2021/10/19 09:50:52;;;;;;;19.40;13.93;;;;;;;16.67;49.17;102688.98;1334847;106;21183;-53
2021/10/19 09:53:19;;;;;;;17.80;15.48;;;;;;;16.71;48.98;102688.52;1335338;106;22451;-55
2021/10/19 09:55:50;;;;;;;18.98;15.45;;;;;;;16.73;48.97;102688.88;1335290;107;21220;-52
2021/10/19 09:58:19;;;;;;;19.50;16.32;;;;;;;16.76;48.82;102688.84;1318629;108;21276;-53
2021/10/19 10:00:46;;;;;;;19.85;15.48;;;;;;;16.77;48.93;102680.52;1323582;108;21114;-50
2021/10/19 10:03:13;;;;;;;18.12;14.75;;;;;;;16.78;49.12;102675.67;1305481;109;21141;-52
2021/10/19 10:05:40;;;;;;;16.45;14.58;;;;;;;16.80;48.91;102675.20;1305507;108;21243;-51
2021/10/19 10:08:15;;;;;;;21.42;14.38;;;;;;;16.82;48.68;102673.41;1339457;107;21176;-52
2021/10/19 10:10:44;;;;;;;18.90;15.20;;;;;;;16.84;48.32;102678.19;1328471;108;21185;-52
2021/10/19 10:13:14;;;;;;;17.50;14.00;;;;;;;16.87;48.68;102678.16;1329730;108;21241;-53
2021/10/19 10:15:42;;;;;;;20.05;14.83;;;;;;;16.91;48.47;102687.72;1329376;108;21173;-49
2021/10/19 10:18:10;;;;;;;17.30;14.35;;;;;;;16.93;48.07;102678.05;1312154;106;21204;-56
2021/10/19 10:20:41;;;;;;;15.95;13.65;;;;;;;16.94;47.87;102677.13;1356791;104;21151;-52
2021/10/19 10:23:24;;;;;;;19.02;14.15;;;;;;;16.96;47.86;102681.48;1361301;105;21679;-53
2021/10/19 10:25:55;;;;;;;17.92;14.25;;;;;;;16.97;47.96;102679.72;1361357;105;21235;-50
2021/10/19 10:28:31;;;;;;;17.65;14.03;;;;;;;16.98;47.58;102676.22;1383430;102;21195;-49
2021/10/19 10:31:00;;;;;;;16.85;14.50;;;;;;;16.99;47.57;102672.67;1399845;102;21257;-52
2021/10/19 10:33:39;;;;;;;17.00;13.80;;;;;;;17.01;47.62;102670.88;1433937;99;21118;-54
2021/10/19 10:36:08;;;;;;;16.93;12.47;;;;;;;17.03;47.56;102670.41;1434755;100;21123;-51
2021/10/19 10:38:38;;;;;;;14.25;12.73;;;;;;;17.04;47.53;102666.42;1434975;100;21153;-48
2021/10/19 10:41:15;;;;;;;19.17;14.30;;;;;;;17.07;47.84;102664.20;1435073;100;21127;-50
2021/10/19 10:43:43;;;;;;;15.30;13.68;;;;;;;17.10;47.55;102666.31;1475737;96;21140;-52
2021/10/19 10:46:19;;;;;;;14.85;12.58;;;;;;;17.13;47.41;102670.66;1479033;96;21099;-51
2021/10/19 10:48:45;;;;;;;13.85;12.33;;;;;;;17.13;47.72;102665.39;1525732;94;21548;-52
2021/10/19 10:51:14;;;;;;;15.70;14.00;;;;;;;17.17;47.87;102673.65;1529682;92;21098;-52
2021/10/19 10:53:44;;;;;;;16.52;14.20;;;;;;;17.21;47.58;102671.38;1530099;92;21066;-51
2021/10/19 10:56:13;;;;;;;15.30;12.93;;;;;;;17.24;47.70;102673.97;1505823;94;21097;-51
2021/10/19 10:58:41;;;;;;;18.52;14.07;;;;;;;17.26;47.77;102676.12;1507526;94;21544;-51
2021/10/19 11:01:22;;;;;;;17.70;14.03;;;;;;;17.27;47.32;102668.62;1502258;94;21156;-53
2021/10/19 11:03:52;;;;;;;15.00;12.57;;;;;;;17.27;47.41;102668.62;1502495;94;21031;-52
2021/10/19 11:06:23;;;;;;;15.03;13.40;;;;;;;17.27;47.68;102676.52;1502134;94;21127;-54
2021/10/19 11:09:01;;;;;;;17.48;13.03;;;;;;;17.25;47.48;102670.42;1502426;94;21784;-50
2021/10/19 11:11:31;;;;;;;18.82;13.00;;;;;;;17.21;47.31;102675.32;1494299;94;21092;-49
2021/10/19 11:14:01;;;;;;;16.15;12.37;;;;;;;17.18;47.28;102679.34;1502029;94;21125;-52